Time;durP1;ratioP1;P1;durP2;ratioP2;P2;SDS_P1;SDS_P2;PMS_P1;PMS_P2;Temp;Humidity;BMP_temperature;BMP_pressure;BME280_temperature;BME280_humidity;BME280_pressure;Samples;Min_cycle;Max_cycle;Signal;HPM_P1;HPM_P2
2023/03/18 00:00:37;;;;;;;2.10;2.00;;;;;;;;;;4949781;28;20200;-53
2023/03/18 00:03:03;;;;;;;2.07;1.97;;;;;;;;;;4950032;28;20230;-54
2023/03/18 00:05:30;;;;;;;2.33;2.23;;;;;;;;;;4955364;28;20288;-54
2023/03/18 00:07:56;;;;;;;2.50;2.40;;;;;;;;;;4946048;28;20194;-54
2023/03/18 00:10:21;;;;;;;2.20;2.10;;;;;;;;;;4952468;28;20258;-54
2023/03/18 00:12:47;;;;;;;2.30;2.20;;;;;;;;;;4945131;28;20246;-53
2023/03/18 00:15:15;;;;;;;2.10;2.00;;;;;;;;;;4950299;28;20559;-54
2023/03/18 00:17:42;;;;;;;2.10;2.00;;;;;;;;;;4954504;28;20194;-54
2023/03/18 00:20:08;;;;;;;2.00;1.90;;;;;;;;;;4946332;28;20211;-53
2023/03/18 00:22:34;;;;;;;2.00;1.90;;;;;;;;;;4954588;28;20273;-54
2023/03/18 00:25:00;;;;;;;2.10;2.00;;;;;;;;;;4937392;28;20854;-54
2023/03/18 00:27:27;;;;;;;2.00;1.90;;;;;;;;;;4954279;28;20324;-54
2023/03/18 00:29:53;;;;;;;2.07;1.97;;;;;;;;;;4956318;28;20202;-53
2023/03/18 00:32:20;;;;;;;2.10;2.00;;;;;;;;;;4952012;28;20645;-54
2023/03/18 00:34:46;;;;;;;2.10;2.00;;;;;;;;;;4958441;28;20187;-53
2023/03/18 00:37:17;;;;;;;2.00;1.90;;;;;;;;;;4954038;28;20230;-54
2023/03/18 00:39:45;;;;;;;2.10;2.00;;;;;;;;;;4957297;28;20683;-54
2023/03/18 00:42:11;;;;;;;1.90;1.80;;;;;;;;;;4957661;28;20183;-54
2023/03/18 00:44:37;;;;;;;2.20;2.10;;;;;;;;;;4952159;28;20649;-54
2023/03/18 00:47:03;;;;;;;2.13;2.03;;;;;;;;;;4953879;28;20664;-54
2023/03/18 00:49:29;;;;;;;2.20;2.10;;;;;;;;;;4956873;28;20300;-54
2023/03/18 00:51:55;;;;;;;1.60;1.60;;;;;;;;;;4949698;28;20726;-55
2023/03/18 00:54:23;;;;;;;2.07;1.97;;;;;;;;;;4960026;28;21107;-54
2023/03/18 00:56:49;;;;;;;2.30;2.20;;;;;;;;;;4959513;28;20234;-55
2023/03/18 00:59:15;;;;;;;2.00;1.90;;;;;;;;;;4953210;28;20673;-53
2023/03/18 01:01:41;;;;;;;1.60;1.60;;;;;;;;;;4951582;28;20198;-54
2023/03/18 01:04:07;;;;;;;1.60;1.60;;;;;;;;;;4952234;28;20549;-53
2023/03/18 01:06:33;;;;;;;1.90;1.80;;;;;;;;;;4954931;28;20776;-54
2023/03/18 01:09:00;;;;;;;1.83;1.73;;;;;;;;;;4953628;28;20602;-54
2023/03/18 01:11:26;;;;;;;2.20;2.10;;;;;;;;;;4954712;28;20683;-54
2023/03/18 01:13:52;;;;;;;2.20;2.10;;;;;;;;;;4946548;28;20281;-54
2023/03/18 01:16:19;;;;;;;2.33;2.23;;;;;;;;;;4945126;28;20954;-54
2023/03/18 01:18:46;;;;;;;1.90;1.80;;;;;;;;;;4944201;28;20687;-54
2023/03/18 01:21:12;;;;;;;1.90;1.80;;;;;;;;;;4945961;28;20175;-53
2023/03/18 01:23:38;;;;;;;2.10;2.00;;;;;;;;;;4950757;28;20198;-53
2023/03/18 01:26:04;;;;;;;1.90;1.80;;;;;;;;;;4933836;28;20187;-54
2023/03/18 01:28:30;;;;;;;1.90;1.80;;;;;;;;;;4953381;28;20607;-54
2023/03/18 01:30:56;;;;;;;2.03;1.93;;;;;;;;;;4960971;28;20242;-53
2023/03/18 01:33:23;;;;;;;2.20;2.10;;;;;;;;;;4958438;28;20792;-54
2023/03/18 01:35:53;;;;;;;1.90;1.80;;;;;;;;;;4940849;28;20206;-54
2023/03/18 01:38:19;;;;;;;1.60;1.60;;;;;;;;;;4957852;28;20865;-54
2023/03/18 01:40:45;;;;;;;1.70;1.70;;;;;;;;;;4957591;28;20245;-54
2023/03/18 01:43:15;;;;;;;1.90;1.80;;;;;;;;;;4958189;28;20274;-54
2023/03/18 01:45:42;;;;;;;1.67;1.67;;;;;;;;;;4953500;28;20618;-55
2023/03/18 01:48:10;;;;;;;2.13;2.03;;;;;;;;;;4951955;28;20273;-54
2023/03/18 01:50:37;;;;;;;1.37;1.37;;;;;;;;;;4934123;28;20567;-54
2023/03/18 01:53:07;;;;;;;1.40;1.40;;;;;;;;;;4956728;28;20204;-55
2023/03/18 01:55:33;;;;;;;1.50;1.50;;;;;;;;;;4953638;28;20218;-54
2023/03/18 01:58:00;;;;;;;2.00;1.90;;;;;;;;;;4935769;28;20704;-53
2023/03/18 02:00:27;;;;;;;1.90;1.80;;;;;;;;;;4925929;28;21654;-53
2023/03/18 02:02:53;;;;;;;1.53;1.53;;;;;;;;;;4944133;28;20191;-53
2023/03/18 02:05:20;;;;;;;2.00;1.90;;;;;;;;;;4946497;28;20575;-54
2023/03/18 02:07:46;;;;;;;1.50;1.50;;;;;;;;;;4938743;28;20203;-55
2023/03/18 02:10:14;;;;;;;2.40;2.30;;;;;;;;;;4947618;28;20198;-54
2023/03/18 02:12:42;;;;;;;2.30;2.20;;;;;;;;;;4942652;28;20187;-53
2023/03/18 02:15:10;;;;;;;2.20;2.10;;;;;;;;;;4950191;28;20837;-53
2023/03/18 02:17:40;;;;;;;2.00;1.90;;;;;;;;;;4946796;28;21152;-54
2023/03/18 02:20:09;;;;;;;2.00;1.90;;;;;;;;;;4936733;28;20191;-53
2023/03/18 02:22:38;;;;;;;1.50;1.50;;;;;;;;;;4953466;28;20192;-53
2023/03/18 02:25:13;;;;;;;1.50;1.50;;;;;;;;;;4949732;28;20190;-54
2023/03/18 02:27:40;;;;;;;1.50;1.50;;;;;;;;;;4931720;28;20489;-54
2023/03/18 02:30:07;;;;;;;2.43;2.33;;;;;;;;;;4926570;28;20668;-55
2023/03/18 02:32:33;;;;;;;2.10;2.00;;;;;;;;;;4922429;28;20198;-53
2023/03/18 02:35:00;;;;;;;2.30;2.20;;;;;;;;;;4943508;28;20233;-54
2023/03/18 02:37:26;;;;;;;2.20;2.10;;;;;;;;;;4951395;28;20191;-53
2023/03/18 02:39:52;;;;;;;2.13;2.03;;;;;;;;;;4957431;28;20251;-54
2023/03/18 02:42:30;;;;;;;1.93;1.83;;;;;;;;;;4942100;28;20191;-55
2023/03/18 02:44:56;;;;;;;1.50;1.50;;;;;;;;;;4953455;28;20345;-54
2023/03/18 02:47:22;;;;;;;2.13;2.03;;;;;;;;;;4937540;28;20183;-52
2023/03/18 02:49:48;;;;;;;1.50;1.50;;;;;;;;;;4950850;28;20608;-53
2023/03/18 02:52:14;;;;;;;1.50;1.50;;;;;;;;;;4951126;28;20210;-55
2023/03/18 02:54:40;;;;;;;1.50;1.50;;;;;;;;;;4957026;28;20523;-52
2023/03/18 02:57:06;;;;;;;2.07;1.97;;;;;;;;;;4954813;28;20245;-54
2023/03/18 02:59:32;;;;;;;1.60;1.60;;;;;;;;;;4953808;28;20234;-53
2023/03/18 03:01:58;;;;;;;1.50;1.50;;;;;;;;;;4956757;28;20195;-53
2023/03/18 03:04:24;;;;;;;1.20;1.20;;;;;;;;;;4951316;28;20194;-52
2023/03/18 03:06:51;;;;;;;1.10;1.10;;;;;;;;;;4952075;28;20230;-53
2023/03/18 03:09:17;;;;;;;0.90;0.90;;;;;;;;;;4955276;28;20195;-53
2023/03/18 03:11:43;;;;;;;0.90;0.90;;;;;;;;;;4936692;28;20187;-54
2023/03/18 03:14:09;;;;;;;1.97;1.87;;;;;;;;;;4956623;28;20195;-53
2023/03/18 03:16:36;;;;;;;1.20;1.20;;;;;;;;;;4931276;28;20211;-52
2023/03/18 03:19:03;;;;;;;1.10;1.10;;;;;;;;;;4954703;28;20191;-53
2023/03/18 03:21:29;;;;;;;1.30;1.30;;;;;;;;;;4954211;28;20199;-54
2023/03/18 03:23:55;;;;;;;1.20;1.20;;;;;;;;;;4954507;28;20191;-54
2023/03/18 03:26:21;;;;;;;0.90;0.90;;;;;;;;;;4954097;28;20206;-53
2023/03/18 03:28:47;;;;;;;0.90;0.90;;;;;;;;;;4955516;28;20199;-53
2023/03/18 03:31:13;;;;;;;0.90;0.90;;;;;;;;;;4955927;28;20648;-53
2023/03/18 03:33:40;;;;;;;0.90;0.90;;;;;;;;;;4955619;28;20199;-53
2023/03/18 03:36:08;;;;;;;0.80;0.80;;;;;;;;;;4954720;28;20328;-53
2023/03/18 03:38:33;;;;;;;0.90;0.90;;;;;;;;;;4942109;28;20625;-53
2023/03/18 03:40:59;;;;;;;0.80;0.80;;;;;;;;;;4950127;28;20281;-53
2023/03/18 03:43:26;;;;;;;0.90;0.90;;;;;;;;;;4949244;28;20257;-53
2023/03/18 03:45:52;;;;;;;0.83;0.83;;;;;;;;;;4953557;28;21010;-52
2023/03/18 03:48:18;;;;;;;0.90;0.90;;;;;;;;;;4956947;28;20282;-53
2023/03/18 03:50:44;;;;;;;0.80;0.80;;;;;;;;;;4935218;28;20195;-53
2023/03/18 03:53:10;;;;;;;0.90;0.90;;;;;;;;;;4954976;28;20197;-53
2023/03/18 03:55:36;;;;;;;0.80;0.80;;;;;;;;;;4948527;28;20219;-53
2023/03/18 03:58:03;;;;;;;0.90;0.90;;;;;;;;;;4946726;28;20261;-54
2023/03/18 04:00:29;;;;;;;1.00;1.00;;;;;;;;;;4949705;28;20282;-53
2023/03/18 04:02:55;;;;;;;0.90;0.90;;;;;;;;;;4949711;28;20337;-52
2023/03/18 04:05:22;;;;;;;0.90;0.90;;;;;;;;;;4948920;28;20199;-53
2023/03/18 04:07:48;;;;;;;1.00;1.00;;;;;;;;;;4945514;28;20475;-54
2023/03/18 04:10:16;;;;;;;0.90;0.90;;;;;;;;;;4927611;28;20242;-53
2023/03/18 04:12:44;;;;;;;1.10;1.10;;;;;;;;;;4942561;28;20195;-54
2023/03/18 04:15:10;;;;;;;0.90;0.90;;;;;;;;;;4947244;28;20251;-53
2023/03/18 04:17:36;;;;;;;0.80;0.80;;;;;;;;;;4946655;28;20896;-54
2023/03/18 04:20:04;;;;;;;0.90;0.90;;;;;;;;;;4947000;28;20825;-54
2023/03/18 04:22:30;;;;;;;0.90;0.90;;;;;;;;;;4944790;28;20234;-54
2023/03/18 04:24:56;;;;;;;1.30;1.30;;;;;;;;;;4948210;28;20249;-54
2023/03/18 04:27:22;;;;;;;1.40;1.40;;;;;;;;;;4952811;28;20190;-53
2023/03/18 04:29:48;;;;;;;1.00;1.00;;;;;;;;;;4930171;28;20191;-53
2023/03/18 04:32:14;;;;;;;0.90;0.90;;;;;;;;;;4951079;28;20715;-53
2023/03/18 04:34:40;;;;;;;1.10;1.10;;;;;;;;;;4947393;28;20198;-54
2023/03/18 04:37:07;;;;;;;1.10;1.10;;;;;;;;;;4952044;28;20890;-54
2023/03/18 04:39:33;;;;;;;1.10;1.10;;;;;;;;;;4961281;28;20275;-53
2023/03/18 04:41:59;;;;;;;1.40;1.40;;;;;;;;;;4957506;28;20657;-53
2023/03/18 04:44:25;;;;;;;1.20;1.20;;;;;;;;;;4957906;28;20691;-53
2023/03/18 04:46:52;;;;;;;0.90;0.90;;;;;;;;;;4959767;28;20195;-54
2023/03/18 04:49:18;;;;;;;1.00;1.00;;;;;;;;;;4958873;28;20195;-53
2023/03/18 04:51:45;;;;;;;1.10;1.10;;;;;;;;;;4949645;28;20231;-53
2023/03/18 04:54:11;;;;;;;1.23;1.23;;;;;;;;;;4954484;28;20191;-53
2023/03/18 04:56:38;;;;;;;1.30;1.30;;;;;;;;;;4956725;28;20671;-52
2023/03/18 04:59:04;;;;;;;1.10;1.10;;;;;;;;;;4959562;28;20189;-54
2023/03/18 05:01:30;;;;;;;1.50;1.50;;;;;;;;;;4957082;28;20191;-53
2023/03/18 05:03:56;;;;;;;1.20;1.20;;;;;;;;;;4960588;28;20203;-53
2023/03/18 05:06:23;;;;;;;1.13;1.13;;;;;;;;;;4948329;28;20305;-54
2023/03/18 05:08:50;;;;;;;1.40;1.40;;;;;;;;;;4950910;28;20557;-53
2023/03/18 05:11:16;;;;;;;1.20;1.20;;;;;;;;;;4959568;28;20234;-53
2023/03/18 05:13:41;;;;;;;1.30;1.30;;;;;;;;;;4953015;28;20610;-54
2023/03/18 05:16:08;;;;;;;1.40;1.40;;;;;;;;;;4949039;28;20778;-53
2023/03/18 05:18:34;;;;;;;1.30;1.30;;;;;;;;;;4953430;28;20187;-53
2023/03/18 05:21:01;;;;;;;0.90;0.90;;;;;;;;;;4958949;28;20183;-52
2023/03/18 05:23:27;;;;;;;1.07;1.07;;;;;;;;;;4952059;28;20180;-53
2023/03/18 05:25:53;;;;;;;0.80;0.80;;;;;;;;;;4952217;28;20286;-54
2023/03/18 05:28:20;;;;;;;0.90;0.90;;;;;;;;;;4957422;28;20344;-53
2023/03/18 05:30:46;;;;;;;0.80;0.80;;;;;;;;;;4951974;28;20255;-53
2023/03/18 05:33:12;;;;;;;0.90;0.90;;;;;;;;;;4955666;28;20195;-53
2023/03/18 05:35:38;;;;;;;1.00;1.00;;;;;;;;;;4953914;28;20905;-52
2023/03/18 05:38:06;;;;;;;0.80;0.80;;;;;;;;;;4950150;28;20199;-53
2023/03/18 05:40:32;;;;;;;0.80;0.80;;;;;;;;;;4953326;28;20191;-53
2023/03/18 05:42:58;;;;;;;1.00;1.00;;;;;;;;;;4957807;28;20577;-53
2023/03/18 05:45:24;;;;;;;1.10;1.10;;;;;;;;;;4951428;28;20191;-54
2023/03/18 05:47:50;;;;;;;0.90;0.90;;;;;;;;;;4953268;28;20190;-53
2023/03/18 05:50:32;;;;;;;1.20;1.20;;;;;;;;;;4951174;28;20211;-53
2023/03/18 05:52:59;;;;;;;0.93;0.93;;;;;;;;;;4950544;28;20215;-52
2023/03/18 05:55:27;;;;;;;0.90;0.90;;;;;;;;;;4948902;28;20767;-53
2023/03/18 05:57:53;;;;;;;1.00;1.00;;;;;;;;;;4953935;28;20479;-53
2023/03/18 06:00:19;;;;;;;0.77;0.77;;;;;;;;;;4955444;28;20187;-53
2023/03/18 06:02:45;;;;;;;0.90;0.90;;;;;;;;;;4940986;28;20199;-53
2023/03/18 06:05:11;;;;;;;1.00;1.00;;;;;;;;;;4948760;28;20195;-53
2023/03/18 06:07:37;;;;;;;0.80;0.80;;;;;;;;;;4946994;28;20616;-54
2023/03/18 06:10:03;;;;;;;0.80;0.80;;;;;;;;;;4945154;28;20560;-54
2023/03/18 06:12:29;;;;;;;0.90;0.90;;;;;;;;;;4945412;28;20188;-54
2023/03/18 06:14:55;;;;;;;0.90;0.90;;;;;;;;;;4946157;28;20241;-53
2023/03/18 06:17:21;;;;;;;0.80;0.80;;;;;;;;;;4950391;28;20214;-53
2023/03/18 06:19:47;;;;;;;0.80;0.80;;;;;;;;;;4947324;28;20191;-53
2023/03/18 06:22:15;;;;;;;0.90;0.90;;;;;;;;;;4947381;28;20202;-54
2023/03/18 06:24:41;;;;;;;0.83;0.83;;;;;;;;;;4949035;28;20183;-53
2023/03/18 06:27:07;;;;;;;0.90;0.90;;;;;;;;;;4947182;28;20629;-54
2023/03/18 06:29:34;;;;;;;1.00;1.00;;;;;;;;;;4951590;28;20195;-54
2023/03/18 06:32:00;;;;;;;1.00;1.00;;;;;;;;;;4945183;28;20768;-53
2023/03/18 06:34:26;;;;;;;0.70;0.70;;;;;;;;;;4945660;28;20195;-53
2023/03/18 06:36:52;;;;;;;0.70;0.70;;;;;;;;;;4951084;28;20207;-53
2023/03/18 06:39:18;;;;;;;0.90;0.90;;;;;;;;;;4956359;28;20191;-54
2023/03/18 06:41:44;;;;;;;1.00;1.00;;;;;;;;;;4956144;28;20183;-53
2023/03/18 06:44:12;;;;;;;0.97;0.97;;;;;;;;;;4947079;28;20199;-53
2023/03/18 06:46:38;;;;;;;0.90;0.90;;;;;;;;;;4942055;28;20199;-54
2023/03/18 06:49:03;;;;;;;0.90;0.90;;;;;;;;;;4946344;28;20192;-53
2023/03/18 06:51:29;;;;;;;1.00;1.00;;;;;;;;;;4951701;28;20195;-53
2023/03/18 06:53:55;;;;;;;1.00;1.00;;;;;;;;;;4954614;28;20199;-53
2023/03/18 06:56:22;;;;;;;0.80;0.80;;;;;;;;;;4933371;28;20226;-53
2023/03/18 06:58:48;;;;;;;0.90;0.90;;;;;;;;;;4948252;28;20270;-53
2023/03/18 07:01:14;;;;;;;0.90;0.90;;;;;;;;;;4950715;28;20245;-53
2023/03/18 07:03:41;;;;;;;0.90;0.90;;;;;;;;;;4952374;28;20603;-53
2023/03/18 07:06:09;;;;;;;0.90;0.90;;;;;;;;;;4935303;28;20278;-53
2023/03/18 07:08:35;;;;;;;0.80;0.80;;;;;;;;;;4953410;28;20199;-53
2023/03/18 07:11:02;;;;;;;0.80;0.80;;;;;;;;;;4942966;28;20195;-54
2023/03/18 07:13:28;;;;;;;0.97;0.97;;;;;;;;;;4953768;28;20230;-53
2023/03/18 07:15:55;;;;;;;0.90;0.90;;;;;;;;;;4951435;28;20639;-53
2023/03/18 07:18:21;;;;;;;0.70;0.70;;;;;;;;;;4956558;28;20734;-53
2023/03/18 07:20:48;;;;;;;0.80;0.80;;;;;;;;;;4953006;28;20187;-53
2023/03/18 07:23:13;;;;;;;0.80;0.80;;;;;;;;;;4948293;28;20214;-54
2023/03/18 07:25:40;;;;;;;0.80;0.80;;;;;;;;;;4944741;28;20227;-53
2023/03/18 07:28:06;;;;;;;1.00;1.00;;;;;;;;;;4944833;28;20207;-54
2023/03/18 07:30:33;;;;;;;0.80;0.80;;;;;;;;;;4942604;28;20187;-53
2023/03/18 07:32:59;;;;;;;0.80;0.80;;;;;;;;;;4941005;28;20704;-54
2023/03/18 07:35:24;;;;;;;0.80;0.80;;;;;;;;;;4939562;28;20230;-53
2023/03/18 07:37:51;;;;;;;0.80;0.80;;;;;;;;;;4933913;28;20471;-55
2023/03/18 07:40:17;;;;;;;0.90;0.90;;;;;;;;;;4940370;28;20188;-54
2023/03/18 07:42:43;;;;;;;0.80;0.80;;;;;;;;;;4933962;28;20687;-54
2023/03/18 07:45:09;;;;;;;0.90;0.90;;;;;;;;;;4932743;28;20210;-54
2023/03/18 07:47:35;;;;;;;0.80;0.80;;;;;;;;;;4936675;28;20283;-53
2023/03/18 07:50:03;;;;;;;0.83;0.83;;;;;;;;;;4938402;28;20567;-53
2023/03/18 07:52:29;;;;;;;0.70;0.70;;;;;;;;;;4933660;28;20187;-54
2023/03/18 07:54:54;;;;;;;0.90;0.90;;;;;;;;;;4938052;28;20205;-53
2023/03/18 07:57:20;;;;;;;0.90;0.90;;;;;;;;;;4945162;28;20241;-54
2023/03/18 07:59:46;;;;;;;0.90;0.90;;;;;;;;;;4949255;28;20188;-55
2023/03/18 08:02:13;;;;;;;0.90;0.90;;;;;;;;;;4954100;28;20493;-55
2023/03/18 08:04:39;;;;;;;0.70;0.70;;;;;;;;;;4942126;28;20187;-54
2023/03/18 08:07:05;;;;;;;0.80;0.80;;;;;;;;;;4957122;28;20231;-55
2023/03/18 08:09:31;;;;;;;0.80;0.80;;;;;;;;;;4954152;28;20214;-55
2023/03/18 08:11:57;;;;;;;1.00;1.00;;;;;;;;;;4954473;28;20192;-55
2023/03/18 08:14:23;;;;;;;1.00;1.00;;;;;;;;;;4961275;28;20207;-54
2023/03/18 08:16:49;;;;;;;1.17;1.17;;;;;;;;;;4958393;28;20221;-54
2023/03/18 08:19:15;;;;;;;1.10;1.10;;;;;;;;;;4952093;28;21097;-54
2023/03/18 08:21:42;;;;;;;0.80;0.80;;;;;;;;;;4951894;28;20187;-55
2023/03/18 08:24:08;;;;;;;0.90;0.90;;;;;;;;;;4960307;28;20596;-54
2023/03/18 08:26:34;;;;;;;1.10;1.10;;;;;;;;;;4957651;28;20199;-55
2023/03/18 08:29:00;;;;;;;1.00;1.00;;;;;;;;;;4925913;28;20207;-55
2023/03/18 08:31:26;;;;;;;1.00;1.00;;;;;;;;;;4946856;28;20678;-55
2023/03/18 08:33:55;;;;;;;0.90;0.90;;;;;;;;;;4957820;28;20187;-55
2023/03/18 08:36:21;;;;;;;1.00;1.00;;;;;;;;;;4952942;28;20249;-55
2023/03/18 08:38:48;;;;;;;1.20;1.20;;;;;;;;;;4946217;28;20176;-55
2023/03/18 08:41:15;;;;;;;1.30;1.30;;;;;;;;;;4949619;28;20660;-55
2023/03/18 08:43:41;;;;;;;1.20;1.20;;;;;;;;;;4946821;28;20237;-54
2023/03/18 08:46:07;;;;;;;2.97;2.87;;;;;;;;;;4949530;28;20184;-54
2023/03/18 08:48:34;;;;;;;1.10;1.10;;;;;;;;;;4948407;28;20660;-55
2023/03/18 08:51:02;;;;;;;1.20;1.20;;;;;;;;;;4947446;28;20257;-54
2023/03/18 08:53:28;;;;;;;1.30;1.30;;;;;;;;;;4949977;28;20680;-54
2023/03/18 08:55:54;;;;;;;0.80;0.80;;;;;;;;;;4952529;28;20211;-55
2023/03/18 08:58:20;;;;;;;1.00;1.00;;;;;;;;;;4952911;28;20191;-55
2023/03/18 09:00:46;;;;;;;0.80;0.80;;;;;;;;;;4952232;28;20197;-56
2023/03/18 09:03:14;;;;;;;1.03;1.03;;;;;;;;;;4942518;28;20235;-55
2023/03/18 09:05:41;;;;;;;0.70;0.70;;;;;;;;;;4940832;28;20353;-54
2023/03/18 09:08:07;;;;;;;0.70;0.70;;;;;;;;;;4949899;28;20191;-55
2023/03/18 09:10:34;;;;;;;0.70;0.70;;;;;;;;;;4951319;28;20202;-54
2023/03/18 09:13:00;;;;;;;1.00;1.00;;;;;;;;;;4943949;28;20214;-55
2023/03/18 09:15:26;;;;;;;0.97;0.97;;;;;;;;;;4954572;28;20246;-55
2023/03/18 09:17:52;;;;;;;1.30;1.30;;;;;;;;;;4959465;28;20194;-55
2023/03/18 09:20:18;;;;;;;1.20;1.20;;;;;;;;;;4938281;28;20655;-55
2023/03/18 09:22:44;;;;;;;1.10;1.10;;;;;;;;;;4950139;28;20253;-55
2023/03/18 09:25:10;;;;;;;1.10;1.10;;;;;;;;;;4938114;28;20239;-55
2023/03/18 09:27:36;;;;;;;1.10;1.10;;;;;;;;;;4937501;28;20917;-54
2023/03/18 09:30:03;;;;;;;1.20;1.20;;;;;;;;;;4939853;28;20191;-55
2023/03/18 09:32:29;;;;;;;1.10;1.10;;;;;;;;;;4916499;28;20199;-54
2023/03/18 09:34:55;;;;;;;1.10;1.10;;;;;;;;;;4947251;28;20278;-54
2023/03/18 09:37:20;;;;;;;1.35;1.35;;;;;;;;;;4951259;28;20207;-54
2023/03/18 09:39:47;;;;;;;2.08;1.98;;;;;;;;;;4954143;28;20331;-54
2023/03/18 09:42:20;;;;;;;1.15;1.15;;;;;;;;;;4960843;28;20187;-56
2023/03/18 09:44:47;;;;;;;1.20;1.20;;;;;;;;;;4955361;28;20191;-55
2023/03/18 09:47:25;;;;;;;1.17;1.17;;;;;;;;;;4944077;28;20688;-55
2023/03/18 09:49:58;;;;;;;1.10;1.10;;;;;;;;;;4958455;28;20199;-55
2023/03/18 09:52:28;;;;;;;1.10;1.10;;;;;;;;;;4958103;28;20362;-55
2023/03/18 09:55:13;;;;;;;1.10;1.10;;;;;;;;;;4956524;28;20179;-55
2023/03/18 09:57:41;;;;;;;1.15;1.15;;;;;;;;;;4956196;28;20222;-55
2023/03/18 10:00:20;;;;;;;1.20;1.20;;;;;;;;;;4942926;28;20195;-56
2023/03/18 10:02:47;;;;;;;1.10;1.10;;;;;;;;;;4944062;28;20195;-55
2023/03/18 10:05:29;;;;;;;1.00;1.00;;;;;;;;;;4941041;28;20188;-54
2023/03/18 10:07:57;;;;;;;1.10;1.10;;;;;;;;;;4951379;28;20198;-55
2023/03/18 10:10:49;;;;;;;1.13;1.13;;;;;;;;;;4949838;28;20567;-55
2023/03/18 10:13:21;;;;;;;1.15;1.15;;;;;;;;;;4953980;28;20257;-55
2023/03/18 10:15:48;;;;;;;1.10;1.10;;;;;;;;;;4958215;28;20245;-55
2023/03/18 10:18:25;;;;;;;1.30;1.30;;;;;;;;;;4951919;28;20732;-55
2023/03/18 10:21:10;;;;;;;1.30;1.30;;;;;;;;;;4952377;28;20182;-55
2023/03/18 10:23:48;;;;;;;1.40;1.40;;;;;;;;;;4930057;28;20345;-55
2023/03/18 10:26:20;;;;;;;1.50;1.50;;;;;;;;;;4962510;28;20279;-54
2023/03/18 10:28:49;;;;;;;1.55;1.55;;;;;;;;;;4939101;28;20187;-54
2023/03/18 10:31:34;;;;;;;1.40;1.40;;;;;;;;;;4938437;28;20254;-55
2023/03/18 10:34:16;;;;;;;1.50;1.50;;;;;;;;;;4954621;28;20194;-54
2023/03/18 10:37:00;;;;;;;1.50;1.50;;;;;;;;;;4950214;28;20218;-55
2023/03/18 10:39:27;;;;;;;1.30;1.30;;;;;;;;;;4955273;28;20195;-56
2023/03/18 10:41:53;;;;;;;1.50;1.50;;;;;;;;;;4943900;28;20284;-54
2023/03/18 10:44:29;;;;;;;1.60;1.60;;;;;;;;;;4955114;28;20286;-54
2023/03/18 10:47:08;;;;;;;1.50;1.50;;;;;;;;;;4937507;28;20217;-53
2023/03/18 10:49:35;;;;;;;1.30;1.30;;;;;;;;;;4961211;28;20653;-53
2023/03/18 10:52:11;;;;;;;1.65;1.65;;;;;;;;;;4941967;28;21537;-54
2023/03/18 10:54:41;;;;;;;1.20;1.20;;;;;;;;;;4946966;28;20274;-54
2023/03/18 10:57:10;;;;;;;1.00;1.00;;;;;;;;;;4944444;28;20211;-54
2023/03/18 10:59:37;;;;;;;1.40;1.40;;;;;;;;;;4936622;28;20198;-54
2023/03/18 11:02:03;;;;;;;1.60;1.60;;;;;;;;;;4956163;28;20615;-54
2023/03/18 11:04:31;;;;;;;1.73;1.70;;;;;;;;;;4936421;28;20819;-53
2023/03/18 11:07:00;;;;;;;1.20;1.20;;;;;;;;;;4948381;28;20713;-54
2023/03/18 11:09:44;;;;;;;1.10;1.10;;;;;;;;;;4935955;28;20194;-58
2023/03/18 11:12:17;;;;;;;1.00;1.00;;;;;;;;;;4952693;28;20830;-56
2023/03/18 11:14:47;;;;;;;1.00;1.00;;;;;;;;;;4956813;28;20197;-56
2023/03/18 11:17:32;;;;;;;1.00;1.00;;;;;;;;;;4942824;28;20777;-55
2023/03/18 11:20:07;;;;;;;1.10;1.10;;;;;;;;;;4951699;28;20183;-56
2023/03/18 11:22:34;;;;;;;1.00;1.00;;;;;;;;;;4946230;28;20273;-56
2023/03/18 11:25:06;;;;;;;1.00;1.00;;;;;;;;;;4952827;28;20235;-57
2023/03/18 11:27:34;;;;;;;1.10;1.10;;;;;;;;;;4959486;28;20199;-55
2023/03/18 11:30:00;;;;;;;1.05;1.05;;;;;;;;;;4951772;28;20187;-56
2023/03/18 11:32:27;;;;;;;1.00;1.00;;;;;;;;;;4941787;28;20207;-55
2023/03/18 11:34:54;;;;;;;1.00;1.00;;;;;;;;;;4950786;28;20521;-56
2023/03/18 11:37:20;;;;;;;1.00;1.00;;;;;;;;;;4957622;28;20221;-55
2023/03/18 11:39:47;;;;;;;0.90;0.90;;;;;;;;;;4960165;28;20191;-55
2023/03/18 11:42:17;;;;;;;1.00;1.00;;;;;;;;;;4959239;28;20176;-57
2023/03/18 11:44:43;;;;;;;1.00;1.00;;;;;;;;;;4938898;28;20647;-55
2023/03/18 11:47:37;;;;;;;1.00;1.00;;;;;;;;;;4955427;28;20182;-56
2023/03/18 11:50:04;;;;;;;1.00;1.00;;;;;;;;;;4955829;28;20277;-55
2023/03/18 11:52:30;;;;;;;1.10;1.10;;;;;;;;;;4955355;28;20223;-55
2023/03/18 11:55:00;;;;;;;1.00;1.00;;;;;;;;;;4957506;28;20196;-56
2023/03/18 11:57:32;;;;;;;1.00;1.00;;;;;;;;;;4958682;28;20569;-55
2023/03/18 11:59:58;;;;;;;1.00;1.00;;;;;;;;;;4954701;28;20553;-56
2023/03/18 12:02:27;;;;;;;1.10;1.10;;;;;;;;;;4951548;28;20683;-56
2023/03/18 12:05:16;;;;;;;1.10;1.10;;;;;;;;;;4953239;28;20246;-56
2023/03/18 12:07:51;;;;;;;1.00;1.00;;;;;;;;;;4934429;28;20203;-56
2023/03/18 12:10:19;;;;;;;0.98;0.98;;;;;;;;;;4953555;28;20272;-56
2023/03/18 12:12:58;;;;;;;1.00;1.00;;;;;;;;;;4926107;28;20695;-56
2023/03/18 12:15:24;;;;;;;1.10;1.10;;;;;;;;;;4953008;28;20199;-55
2023/03/18 12:18:06;;;;;;;1.00;1.00;;;;;;;;;;4957573;28;20611;-56
2023/03/18 12:21:01;;;;;;;1.00;1.00;;;;;;;;;;4954946;28;20643;-56
2023/03/18 12:23:40;;;;;;;1.08;1.08;;;;;;;;;;4942802;28;20203;-56
2023/03/18 12:26:07;;;;;;;1.00;1.00;;;;;;;;;;4940434;28;20199;-57
2023/03/18 12:28:33;;;;;;;0.90;0.90;;;;;;;;;;4954264;28;20285;-57
2023/03/18 12:31:03;;;;;;;1.05;1.05;;;;;;;;;;4955395;28;20191;-56
2023/03/18 12:33:36;;;;;;;1.00;1.00;;;;;;;;;;4945440;28;20652;-57
2023/03/18 12:36:02;;;;;;;1.08;1.08;;;;;;;;;;4954730;28;20385;-56
2023/03/18 12:38:35;;;;;;;0.98;0.98;;;;;;;;;;4955285;28;20215;-55
2023/03/18 12:41:05;;;;;;;1.00;1.00;;;;;;;;;;4954873;28;20204;-56
2023/03/18 12:44:10;;;;;;;0.90;0.90;;;;;;;;;;4956776;28;20196;-56
2023/03/18 12:46:39;;;;;;;0.90;0.90;;;;;;;;;;4881422;29;20189;-57
2023/03/18 12:49:10;;;;;;;1.00;1.00;;;;;;;;;;4869646;29;20197;-57
2023/03/18 12:51:48;;;;;;;0.90;0.90;;;;;;;;;;4907305;28;20207;-56
2023/03/18 12:54:16;;;;;;;1.00;1.00;;;;;;;;;;4957540;28;20191;-56
2023/03/18 12:56:43;;;;;;;1.00;1.00;;;;;;;;;;4942124;28;20214;-58
2023/03/18 12:59:15;;;;;;;1.00;1.00;;;;;;;;;;4944369;28;20222;-56
2023/03/18 13:01:48;;;;;;;1.00;1.00;;;;;;;;;;4933840;28;20197;-56
2023/03/18 13:04:21;;;;;;;1.80;1.70;;;;;;;;;;4953983;28;20254;-56
2023/03/18 13:06:48;;;;;;;1.75;1.70;;;;;;;;;;4934328;28;20238;-53
2023/03/18 13:09:18;;;;;;;1.90;1.80;;;;;;;;;;4929529;28;20811;-54
2023/03/18 13:11:49;;;;;;;1.90;1.80;;;;;;;;;;4949031;28;20222;-52
2023/03/18 13:14:33;;;;;;;1.92;1.83;;;;;;;;;;4949222;28;20222;-52
2023/03/18 13:17:00;;;;;;;2.38;2.28;;;;;;;;;;4932460;28;20239;-51
2023/03/18 13:19:26;;;;;;;2.30;2.20;;;;;;;;;;4945426;28;20651;-51
2023/03/18 13:21:56;;;;;;;2.00;1.90;;;;;;;;;;4942185;28;20191;-52
2023/03/18 13:24:36;;;;;;;1.40;1.40;;;;;;;;;;4936929;28;20190;-56
2023/03/18 13:27:12;;;;;;;2.00;1.90;;;;;;;;;;4946876;28;20211;-58
2023/03/18 13:29:38;;;;;;;1.90;1.80;;;;;;;;;;4945622;28;20194;-56
2023/03/18 13:32:04;;;;;;;2.28;2.17;;;;;;;;;;4953122;28;20741;-53
2023/03/18 13:34:35;;;;;;;2.10;2.00;;;;;;;;;;4962003;28;20199;-54
2023/03/18 13:37:20;;;;;;;2.00;1.90;;;;;;;;;;4957588;28;20207;-54
2023/03/18 13:39:46;;;;;;;1.80;1.70;;;;;;;;;;4949450;28;20825;-55
2023/03/18 13:42:17;;;;;;;2.00;1.90;;;;;;;;;;4943127;28;20664;-54
2023/03/18 13:44:54;;;;;;;1.67;1.67;;;;;;;;;;4950910;28;20652;-53
2023/03/18 13:47:20;;;;;;;2.00;1.90;;;;;;;;;;4950681;28;20187;-55
2023/03/18 13:49:46;;;;;;;1.90;1.80;;;;;;;;;;4956237;28;20310;-55
2023/03/18 13:52:22;;;;;;;2.00;1.90;;;;;;;;;;4952998;28;20187;-55
2023/03/18 13:54:49;;;;;;;1.90;1.80;;;;;;;;;;4952066;28;20194;-55
2023/03/18 13:57:25;;;;;;;1.80;1.70;;;;;;;;;;4956658;28;20229;-55
2023/03/18 13:59:51;;;;;;;1.60;1.60;;;;;;;;;;4957806;28;20659;-55
2023/03/18 14:02:29;;;;;;;1.80;1.70;;;;;;;;;;4938389;28;20190;-55
2023/03/18 14:04:57;;;;;;;1.75;1.67;;;;;;;;;;4946322;28;20199;-53
2023/03/18 14:07:23;;;;;;;1.55;1.55;;;;;;;;;;4958153;28;20591;-53
2023/03/18 14:10:05;;;;;;;1.77;1.70;;;;;;;;;;4949994;28;21033;-53
2023/03/18 14:12:34;;;;;;;1.70;1.70;;;;;;;;;;4955177;28;20199;-61
2023/03/18 14:15:04;;;;;;;1.65;1.65;;;;;;;;;;4948290;28;20187;-54
2023/03/18 14:17:32;;;;;;;1.60;1.60;;;;;;;;;;4950463;28;20237;-54
2023/03/18 14:20:03;;;;;;;1.80;1.70;;;;;;;;;;4953400;28;20299;-53
2023/03/18 14:22:35;;;;;;;1.90;1.80;;;;;;;;;;4954168;28;20195;-54
2023/03/18 14:25:28;;;;;;;1.70;1.70;;;;;;;;;;4949212;28;20191;-54
2023/03/18 14:28:14;;;;;;;1.85;1.75;;;;;;;;;;4952190;28;20682;-54
2023/03/18 14:30:44;;;;;;;1.83;1.73;;;;;;;;;;4943807;28;20722;-53
2023/03/18 14:33:20;;;;;;;1.70;1.70;;;;;;;;;;4918899;28;20659;-54
2023/03/18 14:35:53;;;;;;;1.60;1.60;;;;;;;;;;4956313;28;20202;-54
2023/03/18 14:38:23;;;;;;;1.63;1.63;;;;;;;;;;4949626;28;20326;-54
2023/03/18 14:40:50;;;;;;;1.80;1.70;;;;;;;;;;4954775;28;20672;-52
2023/03/18 14:43:21;;;;;;;1.80;1.70;;;;;;;;;;4933595;28;20875;-53
2023/03/18 14:45:48;;;;;;;1.52;1.52;;;;;;;;;;4939626;28;20278;-52
2023/03/18 14:48:23;;;;;;;1.50;1.50;;;;;;;;;;4952184;28;20672;-52
2023/03/18 14:50:52;;;;;;;1.50;1.50;;;;;;;;;;4946822;28;20187;-53